sensor_id;sensor_type;location;lat;lon;timestamp;P1;durP1;ratioP1;P2;durP2;ratioP2
40599;SDS011;26309;50.924;4.754;2022-12-18T00:03:56;65.90;;;28.80;;
40599;SDS011;26309;50.924;4.754;2022-12-18T00:06:23;65.47;;;29.00;;
40599;SDS011;26309;50.924;4.754;2022-12-18T00:08:51;62.97;;;27.50;;
40599;SDS011;26309;50.924;4.754;2022-12-18T00:11:18;62.67;;;27.93;;
40599;SDS011;26309;50.924;4.754;2022-12-18T00:13:45;57.50;;;27.90;;
40599;SDS011;26309;50.924;4.754;2022-12-18T00:16:12;58.27;;;26.70;;
40599;SDS011;26309;50.924;4.754;2022-12-18T00:18:45;68.30;;;28.93;;
40599;SDS011;26309;50.924;4.754;2022-12-18T00:21:12;60.07;;;27.60;;
40599;SDS011;26309;50.924;4.754;2022-12-18T00:23:40;68.77;;;28.87;;
40599;SDS011;26309;50.924;4.754;2022-12-18T00:26:14;62.17;;;27.60;;
40599;SDS011;26309;50.924;4.754;2022-12-18T00:28:50;66.37;;;28.73;;
40599;SDS011;26309;50.924;4.754;2022-12-18T00:31:18;67.60;;;28.83;;
40599;SDS011;26309;50.924;4.754;2022-12-18T00:33:46;65.17;;;29.63;;
40599;SDS011;26309;50.924;4.754;2022-12-18T00:36:14;58.57;;;27.17;;
40599;SDS011;26309;50.924;4.754;2022-12-18T00:38:44;61.90;;;29.17;;
40599;SDS011;26309;50.924;4.754;2022-12-18T00:41:11;63.37;;;27.63;;
40599;SDS011;26309;50.924;4.754;2022-12-18T00:43:38;63.47;;;27.87;;
40599;SDS011;26309;50.924;4.754;2022-12-18T00:46:05;65.67;;;28.63;;
40599;SDS011;26309;50.924;4.754;2022-12-18T00:48:31;62.40;;;29.23;;
40599;SDS011;26309;50.924;4.754;2022-12-18T00:50:57;63.80;;;28.93;;
40599;SDS011;26309;50.924;4.754;2022-12-18T00:53:23;60.57;;;27.90;;
40599;SDS011;26309;50.924;4.754;2022-12-18T00:55:49;58.67;;;27.00;;
40599;SDS011;26309;50.924;4.754;2022-12-18T00:58:15;68.27;;;27.10;;
40599;SDS011;26309;50.924;4.754;2022-12-18T01:00:41;56.17;;;26.53;;
40599;SDS011;26309;50.924;4.754;2022-12-18T01:03:09;61.20;;;27.23;;
40599;SDS011;26309;50.924;4.754;2022-12-18T01:05:39;61.17;;;26.97;;
40599;SDS011;26309;50.924;4.754;2022-12-18T01:08:05;58.00;;;26.20;;
40599;SDS011;26309;50.924;4.754;2022-12-18T01:10:31;67.23;;;27.00;;
40599;SDS011;26309;50.924;4.754;2022-12-18T01:12:57;60.60;;;27.27;;
40599;SDS011;26309;50.924;4.754;2022-12-18T01:15:23;63.80;;;26.60;;
40599;SDS011;26309;50.924;4.754;2022-12-18T01:17:51;56.27;;;25.20;;
40599;SDS011;26309;50.924;4.754;2022-12-18T01:20:18;61.70;;;27.03;;
40599;SDS011;26309;50.924;4.754;2022-12-18T01:22:44;59.03;;;26.13;;
40599;SDS011;26309;50.924;4.754;2022-12-18T01:25:11;59.60;;;27.83;;
40599;SDS011;26309;50.924;4.754;2022-12-18T01:27:36;61.10;;;27.17;;
40599;SDS011;26309;50.924;4.754;2022-12-18T01:30:02;56.67;;;25.37;;
40599;SDS011;26309;50.924;4.754;2022-12-18T01:32:29;54.87;;;24.70;;
40599;SDS011;26309;50.924;4.754;2022-12-18T01:34:56;62.27;;;26.30;;
40599;SDS011;26309;50.924;4.754;2022-12-18T01:37:22;56.27;;;26.43;;
40599;SDS011;26309;50.924;4.754;2022-12-18T01:39:48;54.73;;;25.20;;
40599;SDS011;26309;50.924;4.754;2022-12-18T01:42:15;56.40;;;25.27;;
40599;SDS011;26309;50.924;4.754;2022-12-18T01:53:12;57.10;;;25.87;;
40599;SDS011;26309;50.924;4.754;2022-12-18T01:55:46;57.17;;;24.87;;
40599;SDS011;26309;50.924;4.754;2022-12-18T01:58:18;48.80;;;24.73;;
40599;SDS011;26309;50.924;4.754;2022-12-18T02:00:46;53.13;;;25.37;;
40599;SDS011;26309;50.924;4.754;2022-12-18T02:03:14;46.80;;;24.57;;
40599;SDS011;26309;50.924;4.754;2022-12-18T02:16:47;53.40;;;23.67;;
40599;SDS011;26309;50.924;4.754;2022-12-18T02:27:48;50.67;;;24.47;;
40599;SDS011;26309;50.924;4.754;2022-12-18T02:30:15;50.10;;;24.47;;
40599;SDS011;26309;50.924;4.754;2022-12-18T02:32:47;60.50;;;25.00;;
40599;SDS011;26309;50.924;4.754;2022-12-18T02:35:17;53.57;;;24.60;;
40599;SDS011;26309;50.924;4.754;2022-12-18T02:37:49;47.57;;;21.93;;
40599;SDS011;26309;50.924;4.754;2022-12-18T02:40:16;52.50;;;23.77;;
40599;SDS011;26309;50.924;4.754;2022-12-18T02:42:43;50.70;;;23.50;;
40599;SDS011;26309;50.924;4.754;2022-12-18T02:45:09;57.40;;;25.03;;
40599;SDS011;26309;50.924;4.754;2022-12-18T02:47:39;47.03;;;22.43;;
40599;SDS011;26309;50.924;4.754;2022-12-18T02:56:10;48.37;;;22.33;;
40599;SDS011;26309;50.924;4.754;2022-12-18T02:58:41;54.07;;;23.83;;
40599;SDS011;26309;50.924;4.754;2022-12-18T03:01:21;47.00;;;22.63;;
40599;SDS011;26309;50.924;4.754;2022-12-18T03:03:59;50.73;;;23.10;;
40599;SDS011;26309;50.924;4.754;2022-12-18T03:06:33;41.07;;;21.00;;
40599;SDS011;26309;50.924;4.754;2022-12-18T03:09:06;44.43;;;20.80;;
40599;SDS011;26309;50.924;4.754;2022-12-18T03:11:40;54.17;;;23.47;;
40599;SDS011;26309;50.924;4.754;2022-12-18T03:14:30;49.37;;;21.30;;
40599;SDS011;26309;50.924;4.754;2022-12-18T03:16:59;42.23;;;21.43;;
40599;SDS011;26309;50.924;4.754;2022-12-18T03:19:28;48.43;;;22.43;;
40599;SDS011;26309;50.924;4.754;2022-12-18T03:22:00;48.60;;;22.17;;
40599;SDS011;26309;50.924;4.754;2022-12-18T03:24:31;41.93;;;21.03;;
40599;SDS011;26309;50.924;4.754;2022-12-18T03:27:05;56.40;;;24.63;;
40599;SDS011;26309;50.924;4.754;2022-12-18T03:29:44;54.00;;;23.57;;
40599;SDS011;26309;50.924;4.754;2022-12-18T03:32:33;53.47;;;22.43;;
40599;SDS011;26309;50.924;4.754;2022-12-18T03:35:13;47.53;;;22.57;;
40599;SDS011;26309;50.924;4.754;2022-12-18T03:37:43;48.60;;;22.17;;
40599;SDS011;26309;50.924;4.754;2022-12-18T03:40:09;43.33;;;21.37;;
40599;SDS011;26309;50.924;4.754;2022-12-18T03:42:43;46.30;;;22.20;;
40599;SDS011;26309;50.924;4.754;2022-12-18T03:45:42;45.63;;;20.93;;
40599;SDS011;26309;50.924;4.754;2022-12-18T03:51:02;43.90;;;21.57;;
40599;SDS011;26309;50.924;4.754;2022-12-18T03:55:59;45.37;;;21.67;;
40599;SDS011;26309;50.924;4.754;2022-12-18T03:58:28;41.90;;;20.77;;
40599;SDS011;26309;50.924;4.754;2022-12-18T04:00:58;38.00;;;19.80;;
40599;SDS011;26309;50.924;4.754;2022-12-18T04:03:28;44.40;;;20.37;;
40599;SDS011;26309;50.924;4.754;2022-12-18T04:05:57;40.43;;;20.37;;
40599;SDS011;26309;50.924;4.754;2022-12-18T04:08:25;41.43;;;21.33;;
40599;SDS011;26309;50.924;4.754;2022-12-18T04:10:54;44.67;;;20.37;;
40599;SDS011;26309;50.924;4.754;2022-12-18T04:13:25;40.40;;;19.13;;
40599;SDS011;26309;50.924;4.754;2022-12-18T04:15:54;37.97;;;19.73;;
40599;SDS011;26309;50.924;4.754;2022-12-18T04:18:20;49.00;;;22.23;;
40599;SDS011;26309;50.924;4.754;2022-12-18T04:20:46;43.13;;;20.97;;
40599;SDS011;26309;50.924;4.754;2022-12-18T04:23:11;47.97;;;21.27;;
40599;SDS011;26309;50.924;4.754;2022-12-18T04:25:37;45.47;;;20.17;;
40599;SDS011;26309;50.924;4.754;2022-12-18T04:28:03;44.30;;;21.30;;
40599;SDS011;26309;50.924;4.754;2022-12-18T04:30:29;51.43;;;21.50;;
40599;SDS011;26309;50.924;4.754;2022-12-18T04:32:54;41.97;;;20.40;;
40599;SDS011;26309;50.924;4.754;2022-12-18T04:35:20;41.20;;;19.23;;
40599;SDS011;26309;50.924;4.754;2022-12-18T04:37:46;38.50;;;19.60;;
40599;SDS011;26309;50.924;4.754;2022-12-18T04:40:12;41.00;;;19.80;;
40599;SDS011;26309;50.924;4.754;2022-12-18T04:42:38;36.60;;;18.33;;
40599;SDS011;26309;50.924;4.754;2022-12-18T04:45:05;37.00;;;18.27;;
40599;SDS011;26309;50.924;4.754;2022-12-18T04:47:32;43.90;;;19.60;;
40599;SDS011;26309;50.924;4.754;2022-12-18T04:49:58;39.70;;;19.23;;
40599;SDS011;26309;50.924;4.754;2022-12-18T04:52:23;39.40;;;19.50;;
40599;SDS011;26309;50.924;4.754;2022-12-18T04:54:49;33.70;;;17.87;;
40599;SDS011;26309;50.924;4.754;2022-12-18T04:57:15;37.43;;;17.47;;
40599;SDS011;26309;50.924;4.754;2022-12-18T04:59:43;39.63;;;18.30;;
40599;SDS011;26309;50.924;4.754;2022-12-18T05:02:09;36.13;;;18.70;;
40599;SDS011;26309;50.924;4.754;2022-12-18T05:04:35;35.97;;;16.53;;
40599;SDS011;26309;50.924;4.754;2022-12-18T05:07:00;35.47;;;17.70;;
40599;SDS011;26309;50.924;4.754;2022-12-18T05:09:26;39.70;;;18.43;;
40599;SDS011;26309;50.924;4.754;2022-12-18T05:11:52;38.73;;;18.00;;
40599;SDS011;26309;50.924;4.754;2022-12-18T05:14:19;35.90;;;18.10;;
40599;SDS011;26309;50.924;4.754;2022-12-18T05:16:47;35.67;;;17.10;;
40599;SDS011;26309;50.924;4.754;2022-12-18T05:19:13;37.47;;;18.13;;
40599;SDS011;26309;50.924;4.754;2022-12-18T05:21:39;34.93;;;17.40;;
40599;SDS011;26309;50.924;4.754;2022-12-18T05:24:04;36.30;;;17.43;;
40599;SDS011;26309;50.924;4.754;2022-12-18T05:26:30;37.03;;;17.27;;
40599;SDS011;26309;50.924;4.754;2022-12-18T05:28:56;34.63;;;18.07;;
40599;SDS011;26309;50.924;4.754;2022-12-18T05:31:23;36.97;;;16.80;;
40599;SDS011;26309;50.924;4.754;2022-12-18T05:33:49;37.70;;;17.53;;
40599;SDS011;26309;50.924;4.754;2022-12-18T05:36:15;33.33;;;16.33;;
40599;SDS011;26309;50.924;4.754;2022-12-18T05:38:41;35.27;;;16.53;;
40599;SDS011;26309;50.924;4.754;2022-12-18T05:41:07;37.83;;;17.23;;
40599;SDS011;26309;50.924;4.754;2022-12-18T05:43:34;29.83;;;15.23;;
40599;SDS011;26309;50.924;4.754;2022-12-18T05:46:09;35.30;;;16.77;;
40599;SDS011;26309;50.924;4.754;2022-12-18T05:48:38;35.83;;;16.67;;
40599;SDS011;26309;50.924;4.754;2022-12-18T05:51:05;37.13;;;17.30;;
40599;SDS011;26309;50.924;4.754;2022-12-18T05:53:33;34.13;;;16.97;;
40599;SDS011;26309;50.924;4.754;2022-12-18T05:56:02;32.93;;;17.03;;
40599;SDS011;26309;50.924;4.754;2022-12-18T05:58:30;38.17;;;17.03;;
40599;SDS011;26309;50.924;4.754;2022-12-18T06:00:56;35.43;;;17.50;;
40599;SDS011;26309;50.924;4.754;2022-12-18T06:03:23;34.40;;;16.40;;
40599;SDS011;26309;50.924;4.754;2022-12-18T06:05:49;34.20;;;16.00;;
40599;SDS011;26309;50.924;4.754;2022-12-18T06:08:15;32.50;;;16.17;;
40599;SDS011;26309;50.924;4.754;2022-12-18T06:10:41;39.03;;;16.60;;
40599;SDS011;26309;50.924;4.754;2022-12-18T06:13:07;30.23;;;16.13;;
40599;SDS011;26309;50.924;4.754;2022-12-18T06:15:35;35.33;;;16.13;;
40599;SDS011;26309;50.924;4.754;2022-12-18T06:18:02;33.30;;;16.33;;
40599;SDS011;26309;50.924;4.754;2022-12-18T06:20:28;31.87;;;15.27;;
40599;SDS011;26309;50.924;4.754;2022-12-18T06:22:56;30.60;;;15.77;;
40599;SDS011;26309;50.924;4.754;2022-12-18T06:25:21;32.20;;;16.13;;
40599;SDS011;26309;50.924;4.754;2022-12-18T06:27:47;32.90;;;16.67;;
40599;SDS011;26309;50.924;4.754;2022-12-18T06:30:13;35.80;;;16.33;;
40599;SDS011;26309;50.924;4.754;2022-12-18T06:32:41;38.63;;;15.77;;
40599;SDS011;26309;50.924;4.754;2022-12-18T06:35:06;37.07;;;16.53;;
40599;SDS011;26309;50.924;4.754;2022-12-18T06:37:33;31.33;;;15.87;;
40599;SDS011;26309;50.924;4.754;2022-12-18T06:39:58;34.40;;;16.70;;
40599;SDS011;26309;50.924;4.754;2022-12-18T06:42:25;33.83;;;16.27;;
40599;SDS011;26309;50.924;4.754;2022-12-18T06:44:51;31.40;;;15.63;;
40599;SDS011;26309;50.924;4.754;2022-12-18T06:47:17;36.33;;;16.57;;
40599;SDS011;26309;50.924;4.754;2022-12-18T06:49:43;37.40;;;16.67;;
40599;SDS011;26309;50.924;4.754;2022-12-18T06:52:09;32.67;;;16.80;;
40599;SDS011;26309;50.924;4.754;2022-12-18T06:54:35;35.27;;;15.90;;
40599;SDS011;26309;50.924;4.754;2022-12-18T06:57:01;30.47;;;15.63;;
40599;SDS011;26309;50.924;4.754;2022-12-18T06:59:26;36.10;;;17.00;;
40599;SDS011;26309;50.924;4.754;2022-12-18T07:01:52;34.00;;;16.90;;
40599;SDS011;26309;50.924;4.754;2022-12-18T07:04:18;35.23;;;16.93;;
40599;SDS011;26309;50.924;4.754;2022-12-18T07:06:45;36.87;;;16.87;;
40599;SDS011;26309;50.924;4.754;2022-12-18T07:09:11;34.03;;;16.53;;
40599;SDS011;26309;50.924;4.754;2022-12-18T07:11:36;36.03;;;16.07;;
40599;SDS011;26309;50.924;4.754;2022-12-18T07:14:02;28.57;;;14.27;;
40599;SDS011;26309;50.924;4.754;2022-12-18T07:16:28;36.80;;;15.97;;
40599;SDS011;26309;50.924;4.754;2022-12-18T07:18:54;38.97;;;16.67;;
40599;SDS011;26309;50.924;4.754;2022-12-18T07:21:21;36.13;;;16.77;;
40599;SDS011;26309;50.924;4.754;2022-12-18T07:23:48;37.57;;;16.27;;
40599;SDS011;26309;50.924;4.754;2022-12-18T07:26:15;37.70;;;17.47;;
40599;SDS011;26309;50.924;4.754;2022-12-18T07:28:42;34.23;;;15.53;;
40599;SDS011;26309;50.924;4.754;2022-12-18T07:31:19;36.30;;;16.40;;
40599;SDS011;26309;50.924;4.754;2022-12-18T07:33:46;36.57;;;17.13;;
40599;SDS011;26309;50.924;4.754;2022-12-18T07:36:12;41.57;;;17.70;;
40599;SDS011;26309;50.924;4.754;2022-12-18T07:38:39;36.03;;;16.87;;
40599;SDS011;26309;50.924;4.754;2022-12-18T07:41:06;36.67;;;17.50;;
40599;SDS011;26309;50.924;4.754;2022-12-18T07:43:33;35.13;;;17.70;;
40599;SDS011;26309;50.924;4.754;2022-12-18T07:46:00;32.93;;;16.83;;
40599;SDS011;26309;50.924;4.754;2022-12-18T07:48:25;38.73;;;17.93;;
40599;SDS011;26309;50.924;4.754;2022-12-18T07:50:55;34.20;;;17.20;;
40599;SDS011;26309;50.924;4.754;2022-12-18T07:53:29;36.87;;;16.80;;
40599;SDS011;26309;50.924;4.754;2022-12-18T07:55:58;34.67;;;16.30;;
40599;SDS011;26309;50.924;4.754;2022-12-18T07:58:26;32.87;;;15.67;;
40599;SDS011;26309;50.924;4.754;2022-12-18T08:00:52;34.37;;;16.13;;
40599;SDS011;26309;50.924;4.754;2022-12-18T08:03:18;35.43;;;16.90;;
40599;SDS011;26309;50.924;4.754;2022-12-18T08:05:44;38.97;;;17.57;;
40599;SDS011;26309;50.924;4.754;2022-12-18T08:08:10;36.43;;;18.17;;
40599;SDS011;26309;50.924;4.754;2022-12-18T08:10:36;34.53;;;16.47;;
40599;SDS011;26309;50.924;4.754;2022-12-18T08:13:03;32.20;;;16.57;;
40599;SDS011;26309;50.924;4.754;2022-12-18T08:15:29;30.87;;;14.30;;
40599;SDS011;26309;50.924;4.754;2022-12-18T08:17:58;33.07;;;16.60;;
40599;SDS011;26309;50.924;4.754;2022-12-18T08:20:24;29.97;;;15.57;;
40599;SDS011;26309;50.924;4.754;2022-12-18T08:22:50;30.00;;;16.93;;
40599;SDS011;26309;50.924;4.754;2022-12-18T08:25:15;31.93;;;16.30;;
40599;SDS011;26309;50.924;4.754;2022-12-18T08:27:41;40.30;;;19.23;;
40599;SDS011;26309;50.924;4.754;2022-12-18T08:30:07;32.13;;;16.03;;
40599;SDS011;26309;50.924;4.754;2022-12-18T08:32:33;38.87;;;18.03;;
40599;SDS011;26309;50.924;4.754;2022-12-18T08:34:59;34.27;;;16.53;;
40599;SDS011;26309;50.924;4.754;2022-12-18T08:37:25;33.40;;;17.53;;
40599;SDS011;26309;50.924;4.754;2022-12-18T08:39:51;29.00;;;15.87;;
40599;SDS011;26309;50.924;4.754;2022-12-18T08:42:16;34.20;;;16.63;;
40599;SDS011;26309;50.924;4.754;2022-12-18T08:45:00;25.73;;;14.10;;
40599;SDS011;26309;50.924;4.754;2022-12-18T08:47:27;31.90;;;16.00;;
40599;SDS011;26309;50.924;4.754;2022-12-18T08:49:52;33.20;;;15.47;;
40599;SDS011;26309;50.924;4.754;2022-12-18T08:52:18;27.20;;;15.23;;
40599;SDS011;26309;50.924;4.754;2022-12-18T08:54:44;30.20;;;16.33;;
40599;SDS011;26309;50.924;4.754;2022-12-18T08:57:09;29.20;;;15.90;;
40599;SDS011;26309;50.924;4.754;2022-12-18T08:59:35;33.87;;;16.57;;
40599;SDS011;26309;50.924;4.754;2022-12-18T09:02:01;28.90;;;15.30;;
40599;SDS011;26309;50.924;4.754;2022-12-18T09:04:27;31.87;;;15.80;;
40599;SDS011;26309;50.924;4.754;2022-12-18T09:06:52;27.50;;;15.80;;
40599;SDS011;26309;50.924;4.754;2022-12-18T09:09:18;30.93;;;15.97;;
40599;SDS011;26309;50.924;4.754;2022-12-18T09:11:44;29.27;;;15.27;;
40599;SDS011;26309;50.924;4.754;2022-12-18T09:14:10;27.63;;;14.40;;
40599;SDS011;26309;50.924;4.754;2022-12-18T09:16:36;26.10;;;15.33;;
40599;SDS011;26309;50.924;4.754;2022-12-18T09:19:02;28.30;;;15.37;;
40599;SDS011;26309;50.924;4.754;2022-12-18T09:21:33;28.00;;;15.33;;
40599;SDS011;26309;50.924;4.754;2022-12-18T09:24:00;30.83;;;16.43;;
40599;SDS011;26309;50.924;4.754;2022-12-18T09:26:26;29.97;;;15.33;;
40599;SDS011;26309;50.924;4.754;2022-12-18T09:28:52;25.53;;;14.83;;
40599;SDS011;26309;50.924;4.754;2022-12-18T09:31:20;28.50;;;15.23;;
40599;SDS011;26309;50.924;4.754;2022-12-18T09:33:47;30.10;;;16.50;;
40599;SDS011;26309;50.924;4.754;2022-12-18T09:36:14;27.27;;;15.47;;
40599;SDS011;26309;50.924;4.754;2022-12-18T09:38:41;31.73;;;15.90;;
40599;SDS011;26309;50.924;4.754;2022-12-18T09:43:53;26.30;;;14.33;;
40599;SDS011;26309;50.924;4.754;2022-12-18T09:46:26;28.67;;;14.20;;
40599;SDS011;26309;50.924;4.754;2022-12-18T09:48:56;27.20;;;14.90;;
40599;SDS011;26309;50.924;4.754;2022-12-18T09:51:30;28.17;;;15.27;;
40599;SDS011;26309;50.924;4.754;2022-12-18T09:54:45;24.43;;;13.87;;
40599;SDS011;26309;50.924;4.754;2022-12-18T09:56:57;25.50;;;14.30;;
40599;SDS011;26309;50.924;4.754;2022-12-18T09:59:24;25.53;;;14.07;;
40599;SDS011;26309;50.924;4.754;2022-12-18T10:01:56;25.07;;;13.93;;
40599;SDS011;26309;50.924;4.754;2022-12-18T10:04:23;24.20;;;13.63;;
40599;SDS011;26309;50.924;4.754;2022-12-18T10:09:28;24.43;;;13.23;;
40599;SDS011;26309;50.924;4.754;2022-12-18T10:17:29;24.73;;;14.03;;
40599;SDS011;26309;50.924;4.754;2022-12-18T10:26:04;26.47;;;13.63;;
40599;SDS011;26309;50.924;4.754;2022-12-18T10:28:33;24.90;;;13.93;;
40599;SDS011;26309;50.924;4.754;2022-12-18T10:31:07;21.43;;;12.27;;
40599;SDS011;26309;50.924;4.754;2022-12-18T10:33:46;20.10;;;11.77;;
40599;SDS011;26309;50.924;4.754;2022-12-18T10:36:13;22.80;;;12.73;;
40599;SDS011;26309;50.924;4.754;2022-12-18T10:38:42;22.30;;;13.17;;
40599;SDS011;26309;50.924;4.754;2022-12-18T10:44:11;22.23;;;13.03;;
40599;SDS011;26309;50.924;4.754;2022-12-18T10:46:39;22.37;;;12.77;;
40599;SDS011;26309;50.924;4.754;2022-12-18T10:49:07;23.77;;;13.57;;
40599;SDS011;26309;50.924;4.754;2022-12-18T10:51:45;22.63;;;12.90;;
40599;SDS011;26309;50.924;4.754;2022-12-18T10:54:19;23.30;;;13.37;;
40599;SDS011;26309;50.924;4.754;2022-12-18T10:56:47;22.43;;;14.07;;
40599;SDS011;26309;50.924;4.754;2022-12-18T10:59:14;22.47;;;13.10;;
40599;SDS011;26309;50.924;4.754;2022-12-18T11:01:49;24.60;;;13.40;;
40599;SDS011;26309;50.924;4.754;2022-12-18T11:06:53;26.43;;;14.97;;
40599;SDS011;26309;50.924;4.754;2022-12-18T11:09:21;24.50;;;14.17;;
40599;SDS011;26309;50.924;4.754;2022-12-18T11:11:49;24.13;;;13.90;;
40599;SDS011;26309;50.924;4.754;2022-12-18T11:14:21;31.63;;;15.70;;
40599;SDS011;26309;50.924;4.754;2022-12-18T11:16:51;27.47;;;14.37;;
40599;SDS011;26309;50.924;4.754;2022-12-18T11:19:24;27.37;;;15.17;;
40599;SDS011;26309;50.924;4.754;2022-12-18T11:21:55;29.60;;;15.40;;
40599;SDS011;26309;50.924;4.754;2022-12-18T11:26:59;28.63;;;15.63;;
40599;SDS011;26309;50.924;4.754;2022-12-18T11:29:37;53.73;;;29.17;;
40599;SDS011;26309;50.924;4.754;2022-12-18T11:34:50;33.03;;;22.53;;
40599;SDS011;26309;50.924;4.754;2022-12-18T11:37:23;28.57;;;18.30;;
40599;SDS011;26309;50.924;4.754;2022-12-18T11:50:19;26.37;;;15.47;;
40599;SDS011;26309;50.924;4.754;2022-12-18T11:52:51;27.20;;;15.73;;
40599;SDS011;26309;50.924;4.754;2022-12-18T11:55:39;26.50;;;15.33;;
40599;SDS011;26309;50.924;4.754;2022-12-18T12:00:40;26.30;;;15.37;;
40599;SDS011;26309;50.924;4.754;2022-12-18T12:06:21;20.97;;;14.27;;
40599;SDS011;26309;50.924;4.754;2022-12-18T12:09:12;25.87;;;15.03;;
40599;SDS011;26309;50.924;4.754;2022-12-18T12:13:05;25.40;;;15.93;;
40599;SDS011;26309;50.924;4.754;2022-12-18T12:21:34;28.97;;;16.20;;
40599;SDS011;26309;50.924;4.754;2022-12-18T12:27:14;25.13;;;16.90;;
40599;SDS011;26309;50.924;4.754;2022-12-18T12:29:39;27.07;;;16.57;;
40599;SDS011;26309;50.924;4.754;2022-12-18T12:40:41;30.67;;;17.63;;
40599;SDS011;26309;50.924;4.754;2022-12-18T12:46:11;32.03;;;21.50;;
40599;SDS011;26309;50.924;4.754;2022-12-18T12:48:58;123.13;;;74.93;;
40599;SDS011;26309;50.924;4.754;2022-12-18T12:51:28;48.20;;;31.17;;
40599;SDS011;26309;50.924;4.754;2022-12-18T12:53:57;32.70;;;21.70;;
40599;SDS011;26309;50.924;4.754;2022-12-18T12:56:26;34.27;;;20.10;;
40599;SDS011;26309;50.924;4.754;2022-12-18T13:05:06;31.03;;;20.90;;
40599;SDS011;26309;50.924;4.754;2022-12-18T13:07:49;28.67;;;18.20;;
40599;SDS011;26309;50.924;4.754;2022-12-18T13:18:30;28.13;;;17.77;;
40599;SDS011;26309;50.924;4.754;2022-12-18T13:25:54;28.67;;;18.83;;
40599;SDS011;26309;50.924;4.754;2022-12-18T13:28:21;31.63;;;19.80;;
40599;SDS011;26309;50.924;4.754;2022-12-18T13:31:06;28.47;;;18.00;;
40599;SDS011;26309;50.924;4.754;2022-12-18T13:39:08;28.97;;;19.07;;
40599;SDS011;26309;50.924;4.754;2022-12-18T13:41:35;26.33;;;17.83;;
40599;SDS011;26309;50.924;4.754;2022-12-18T13:47:04;26.97;;;16.87;;
40599;SDS011;26309;50.924;4.754;2022-12-18T13:49:50;26.33;;;16.60;;
40599;SDS011;26309;50.924;4.754;2022-12-18T13:52:22;25.50;;;16.50;;
40599;SDS011;26309;50.924;4.754;2022-12-18T13:54:51;24.13;;;14.67;;
40599;SDS011;26309;50.924;4.754;2022-12-18T13:57:27;27.23;;;15.30;;
40599;SDS011;26309;50.924;4.754;2022-12-18T13:59:54;28.10;;;16.27;;
40599;SDS011;26309;50.924;4.754;2022-12-18T14:02:22;27.27;;;15.93;;
40599;SDS011;26309;50.924;4.754;2022-12-18T14:04:52;26.50;;;16.57;;
40599;SDS011;26309;50.924;4.754;2022-12-18T14:07:20;21.50;;;15.53;;
40599;SDS011;26309;50.924;4.754;2022-12-18T14:09:57;26.60;;;16.10;;
40599;SDS011;26309;50.924;4.754;2022-12-18T14:12:32;28.13;;;16.33;;
40599;SDS011;26309;50.924;4.754;2022-12-18T14:15:39;24.73;;;16.17;;
40599;SDS011;26309;50.924;4.754;2022-12-18T14:18:41;27.53;;;16.70;;
40599;SDS011;26309;50.924;4.754;2022-12-18T14:26:50;31.73;;;17.50;;
40599;SDS011;26309;50.924;4.754;2022-12-18T14:34:39;30.43;;;17.70;;
40599;SDS011;26309;50.924;4.754;2022-12-18T14:37:05;32.60;;;19.23;;
40599;SDS011;26309;50.924;4.754;2022-12-18T14:39:34;32.03;;;18.90;;
40599;SDS011;26309;50.924;4.754;2022-12-18T14:41:59;28.80;;;17.67;;
40599;SDS011;26309;50.924;4.754;2022-12-18T14:44:25;29.93;;;18.57;;
40599;SDS011;26309;50.924;4.754;2022-12-18T14:46:51;30.73;;;19.00;;
40599;SDS011;26309;50.924;4.754;2022-12-18T14:49:30;32.53;;;19.50;;
40599;SDS011;26309;50.924;4.754;2022-12-18T14:51:59;32.47;;;19.30;;
40599;SDS011;26309;50.924;4.754;2022-12-18T14:54:29;36.07;;;18.90;;
40599;SDS011;26309;50.924;4.754;2022-12-18T14:57:00;29.27;;;18.30;;
40599;SDS011;26309;50.924;4.754;2022-12-18T14:59:45;34.83;;;19.57;;
40599;SDS011;26309;50.924;4.754;2022-12-18T15:10:24;30.90;;;18.77;;
40599;SDS011;26309;50.924;4.754;2022-12-18T15:20:41;38.17;;;21.37;;
40599;SDS011;26309;50.924;4.754;2022-12-18T15:25:45;35.53;;;20.43;;
40599;SDS011;26309;50.924;4.754;2022-12-18T15:28:16;35.37;;;21.03;;
40599;SDS011;26309;50.924;4.754;2022-12-18T15:33:34;34.50;;;20.43;;
40599;SDS011;26309;50.924;4.754;2022-12-18T15:36:08;42.33;;;23.47;;
40599;SDS011;26309;50.924;4.754;2022-12-18T15:38:36;40.00;;;22.43;;
40599;SDS011;26309;50.924;4.754;2022-12-18T15:41:02;38.03;;;21.07;;
40599;SDS011;26309;50.924;4.754;2022-12-18T15:43:28;34.40;;;20.60;;
40599;SDS011;26309;50.924;4.754;2022-12-18T15:46:01;36.57;;;21.17;;
40599;SDS011;26309;50.924;4.754;2022-12-18T15:48:32;34.50;;;20.70;;
40599;SDS011;26309;50.924;4.754;2022-12-18T15:50:59;42.00;;;21.73;;
40599;SDS011;26309;50.924;4.754;2022-12-18T15:53:30;34.77;;;21.00;;
40599;SDS011;26309;50.924;4.754;2022-12-18T15:55:58;39.53;;;21.70;;
40599;SDS011;26309;50.924;4.754;2022-12-18T15:58:44;39.13;;;22.87;;
40599;SDS011;26309;50.924;4.754;2022-12-18T16:01:10;39.67;;;23.03;;
40599;SDS011;26309;50.924;4.754;2022-12-18T16:03:36;35.37;;;20.50;;
40599;SDS011;26309;50.924;4.754;2022-12-18T16:06:02;36.97;;;21.53;;
40599;SDS011;26309;50.924;4.754;2022-12-18T16:11:02;31.90;;;19.37;;
40599;SDS011;26309;50.924;4.754;2022-12-18T16:13:27;41.03;;;20.40;;
40599;SDS011;26309;50.924;4.754;2022-12-18T16:15:53;41.60;;;21.13;;
40599;SDS011;26309;50.924;4.754;2022-12-18T16:18:19;37.90;;;21.23;;
40599;SDS011;26309;50.924;4.754;2022-12-18T16:20:45;34.37;;;21.13;;
40599;SDS011;26309;50.924;4.754;2022-12-18T16:23:11;39.63;;;21.37;;
40599;SDS011;26309;50.924;4.754;2022-12-18T16:25:36;36.30;;;19.80;;
40599;SDS011;26309;50.924;4.754;2022-12-18T16:28:02;38.10;;;21.17;;
40599;SDS011;26309;50.924;4.754;2022-12-18T16:30:29;36.83;;;21.10;;
40599;SDS011;26309;50.924;4.754;2022-12-18T16:32:57;38.07;;;20.00;;
40599;SDS011;26309;50.924;4.754;2022-12-18T16:35:23;42.23;;;23.17;;
40599;SDS011;26309;50.924;4.754;2022-12-18T16:37:51;46.87;;;26.23;;
40599;SDS011;26309;50.924;4.754;2022-12-18T16:40:17;35.30;;;19.93;;
40599;SDS011;26309;50.924;4.754;2022-12-18T16:42:44;77.87;;;48.60;;
40599;SDS011;26309;50.924;4.754;2022-12-18T16:45:12;47.13;;;28.63;;
40599;SDS011;26309;50.924;4.754;2022-12-18T16:47:40;36.40;;;21.77;;
40599;SDS011;26309;50.924;4.754;2022-12-18T16:50:06;40.00;;;28.10;;
40599;SDS011;26309;50.924;4.754;2022-12-18T16:52:33;39.20;;;21.63;;
40599;SDS011;26309;50.924;4.754;2022-12-18T16:54:59;41.40;;;26.13;;
40599;SDS011;26309;50.924;4.754;2022-12-18T16:57:25;42.47;;;24.37;;
40599;SDS011;26309;50.924;4.754;2022-12-18T16:59:52;36.80;;;21.73;;
40599;SDS011;26309;50.924;4.754;2022-12-18T17:02:18;36.47;;;19.57;;
40599;SDS011;26309;50.924;4.754;2022-12-18T17:04:46;35.37;;;20.40;;
40599;SDS011;26309;50.924;4.754;2022-12-18T17:07:12;40.83;;;22.50;;
40599;SDS011;26309;50.924;4.754;2022-12-18T17:09:38;37.90;;;21.50;;
40599;SDS011;26309;50.924;4.754;2022-12-18T17:12:05;35.40;;;20.50;;
40599;SDS011;26309;50.924;4.754;2022-12-18T17:14:31;37.33;;;20.17;;
40599;SDS011;26309;50.924;4.754;2022-12-18T17:16:57;36.77;;;21.33;;
40599;SDS011;26309;50.924;4.754;2022-12-18T17:19:24;37.27;;;21.10;;
40599;SDS011;26309;50.924;4.754;2022-12-18T17:21:50;33.87;;;20.13;;